Time;durP1;ratioP1;P1;durP2;ratioP2;P2;SDS_P1;SDS_P2;PMS_P1;PMS_P2;Temp;Humidity;BMP_temperature;BMP_pressure;BME280_temperature;BME280_humidity;BME280_pressure;Samples;Min_cycle;Max_cycle;Signal;HPM_P1;HPM_P2
2023/05/25 00:00:42;;;;;;;7.80;6.20;;;13.30;1.00;;;;;;4977743;28;20457;-76
2023/05/25 00:03:09;;;;;;;10.47;7.33;;;13.20;1.00;;;;;;4985926;28;20483;-77
2023/05/25 00:05:39;;;;;;;8.60;7.10;;;13.20;1.00;;;;;;4985961;28;20474;-76
2023/05/25 00:08:06;;;;;;;9.57;6.70;;;13.10;1.00;;;;;;4983771;28;21047;-75
2023/05/25 00:10:33;;;;;;;10.83;7.63;;;13.10;1.00;;;;;;4985051;28;21025;-75
2023/05/25 00:13:00;;;;;;;11.27;7.67;;;13.10;1.00;;;;;;4983380;28;20524;-77
2023/05/25 00:15:27;;;;;;;10.40;7.90;;;13.10;1.00;;;;;;4986304;28;20589;-76
2023/05/25 00:17:54;;;;;;;12.67;8.27;;;13.10;1.00;;;;;;4986146;28;20854;-74
2023/05/25 00:20:22;;;;;;;8.97;7.07;;;13.10;1.00;;;;;;4989099;28;20462;-77
2023/05/25 00:22:51;;;;;;;10.20;8.10;;;13.20;1.00;;;;;;4986256;28;20451;-75
2023/05/25 00:25:19;;;;;;;14.13;7.90;;;13.30;1.00;;;;;;4985572;28;20567;-77
2023/05/25 00:27:46;;;;;;;13.07;8.10;;;13.30;1.00;;;;;;4981018;28;20481;-76
2023/05/25 00:30:15;;;;;;;9.23;7.40;;;13.40;1.00;;;;;;4984419;28;20470;-76
2023/05/25 00:32:42;;;;;;;12.47;7.30;;;13.50;1.00;;;;;;4983211;28;20540;-76
2023/05/25 00:35:09;;;;;;;9.73;6.93;;;13.50;1.00;;;;;;4988497;28;20457;-75
2023/05/25 00:37:36;;;;;;;8.93;6.37;;;13.60;1.00;;;;;;4984931;28;20519;-75
2023/05/25 00:40:09;;;;;;;7.73;6.67;;;13.60;1.00;;;;;;4991741;28;20892;-75
2023/05/25 00:42:39;;;;;;;10.40;6.33;;;13.70;1.00;;;;;;4983513;28;20470;-75
2023/05/25 00:45:07;;;;;;;10.40;7.63;;;13.70;1.00;;;;;;4986162;28;20468;-74
2023/05/25 00:47:34;;;;;;;6.77;6.07;;;13.80;1.00;;;;;;4986527;28;20474;-75
2023/05/25 00:50:01;;;;;;;11.30;6.13;;;13.80;1.00;;;;;;4988901;28;20454;-76
2023/05/25 00:52:29;;;;;;;8.63;6.47;;;13.90;1.00;;;;;;4987241;28;21070;-74
2023/05/25 00:54:59;;;;;;;8.93;6.97;;;14.00;1.00;;;;;;4989113;28;20450;-77
2023/05/25 00:57:32;;;;;;;9.00;6.10;;;14.10;1.00;;;;;;4986966;28;20509;-76
2023/05/25 01:00:00;;;;;;;8.90;6.30;;;14.00;1.00;;;;;;4982480;28;20661;-77
2023/05/25 01:02:29;;;;;;;8.67;6.50;;;14.10;1.00;;;;;;4983408;28;20478;-74
2023/05/25 01:05:00;;;;;;;7.17;5.70;;;14.10;1.00;;;;;;4982578;28;21196;-74
2023/05/25 01:07:27;;;;;;;10.77;5.80;;;14.10;1.00;;;;;;4989870;28;20551;-74
2023/05/25 01:09:58;;;;;;;7.00;5.80;;;14.00;1.00;;;;;;4992882;28;20531;-74
2023/05/25 01:12:28;;;;;;;9.50;6.40;;;14.00;1.00;;;;;;4986021;28;20541;-74
2023/05/25 01:14:56;;;;;;;13.43;5.90;;;14.00;1.00;;;;;;4991315;28;21180;-73
2023/05/25 01:17:24;;;;;;;8.73;5.73;;;13.90;1.00;;;;;;4988632;28;20560;-73
2023/05/25 01:19:51;;;;;;;8.03;5.37;;;13.80;1.00;;;;;;4989252;28;20453;-72
2023/05/25 01:22:24;;;;;;;6.17;5.33;;;13.70;1.00;;;;;;4992397;28;20531;-73
2023/05/25 01:24:53;;;;;;;7.87;5.17;;;13.70;1.00;;;;;;4991124;28;20868;-73
2023/05/25 01:27:27;;;;;;;9.60;6.20;;;13.60;1.00;;;;;;4987574;28;20478;-73
2023/05/25 01:29:55;;;;;;;9.43;5.60;;;13.50;1.00;;;;;;4986380;28;20458;-73
2023/05/25 01:32:23;;;;;;;6.80;5.57;;;13.50;1.00;;;;;;4982893;28;20487;-73
2023/05/25 01:34:50;;;;;;;6.03;5.37;;;13.50;1.00;;;;;;4983448;28;20458;-73
2023/05/25 01:37:22;;;;;;;7.97;6.13;;;13.50;1.00;;;;;;4985421;28;20557;-73
2023/05/25 01:39:52;;;;;;;7.13;5.90;;;13.40;1.00;;;;;;4989473;28;20461;-73
2023/05/25 01:42:18;;;;;;;7.50;6.10;;;13.40;1.00;;;;;;4985961;28;20521;-72
2023/05/25 01:44:45;;;;;;;6.37;5.60;;;13.30;1.00;;;;;;4984426;28;20471;-73
2023/05/25 01:47:18;;;;;;;7.07;5.83;;;13.30;1.00;;;;;;4985601;28;20481;-72
2023/05/25 01:49:56;;;;;;;7.27;5.67;;;13.30;1.00;;;;;;4985134;28;21917;-72
2023/05/25 01:52:28;;;;;;;7.60;6.20;;;13.30;1.00;;;;;;4978203;28;20481;-72
2023/05/25 01:55:00;;;;;;;6.53;5.50;;;13.20;1.00;;;;;;4989120;28;20567;-71
2023/05/25 01:57:30;;;;;;;7.87;5.70;;;13.10;1.00;;;;;;4976017;28;20599;-72
2023/05/25 01:59:59;;;;;;;9.13;5.10;;;13.10;1.00;;;;;;4974945;28;20453;-71
2023/05/25 02:02:27;;;;;;;8.57;6.43;;;13.10;1.00;;;;;;4984305;28;20466;-72
2023/05/25 02:04:54;;;;;;;11.00;6.17;;;13.00;1.00;;;;;;4981917;28;20567;-72
2023/05/25 02:07:22;;;;;;;10.53;6.20;;;13.00;1.00;;;;;;4983301;28;21000;-72
2023/05/25 02:09:51;;;;;;;7.00;6.30;;;13.00;1.00;;;;;;4976083;28;20837;-72
2023/05/25 02:12:18;;;;;;;11.47;6.10;;;12.90;1.00;;;;;;4979520;28;20972;-72
2023/05/25 02:14:47;;;;;;;8.33;6.53;;;12.90;1.00;;;;;;4980724;28;20513;-73
2023/05/25 02:17:16;;;;;;;6.63;6.03;;;12.90;1.00;;;;;;4975206;28;20581;-72
2023/05/25 02:19:43;;;;;;;8.93;5.63;;;12.90;1.00;;;;;;4985082;28;20466;-72
2023/05/25 02:22:10;;;;;;;6.83;5.50;;;12.90;1.00;;;;;;4983181;28;20483;-72
2023/05/25 02:24:37;;;;;;;11.93;10.00;;;12.90;1.00;;;;;;4983289;28;20482;-72
2023/05/25 02:27:11;;;;;;;9.13;6.93;;;12.90;1.00;;;;;;4983437;28;20493;-72
2023/05/25 02:29:38;;;;;;;9.27;6.30;;;12.90;1.00;;;;;;4978307;28;22165;-73
2023/05/25 02:32:06;;;;;;;8.37;6.20;;;12.80;1.00;;;;;;4981236;28;21368;-75
2023/05/25 02:34:34;;;;;;;9.27;7.47;;;12.80;1.00;;;;;;4980222;28;20600;-73
2023/05/25 02:37:01;;;;;;;10.77;7.60;;;12.70;1.00;;;;;;4969666;28;20607;-73
2023/05/25 02:39:28;;;;;;;8.47;6.97;;;12.60;1.00;;;;;;4981681;28;20462;-73
2023/05/25 02:41:55;;;;;;;14.00;11.03;;;12.60;1.00;;;;;;4978456;28;20464;-74
2023/05/25 02:44:23;;;;;;;8.77;6.57;;;12.60;1.00;;;;;;4971003;28;20461;-74
2023/05/25 02:46:52;;;;;;;8.13;6.33;;;12.60;1.00;;;;;;4978167;28;20479;-74
2023/05/25 02:49:19;;;;;;;7.83;5.97;;;12.50;1.00;;;;;;4979080;28;20451;-74
2023/05/25 02:51:46;;;;;;;8.17;6.63;;;12.50;1.00;;;;;;4978887;28;20895;-74
2023/05/25 02:54:13;;;;;;;11.10;7.63;;;12.50;1.00;;;;;;4983785;28;20551;-75
2023/05/25 02:56:42;;;;;;;9.27;7.20;;;12.50;1.00;;;;;;4979846;28;20887;-74
2023/05/25 02:59:09;;;;;;;9.63;7.10;;;12.50;1.00;;;;;;4969008;28;20476;-74
2023/05/25 03:01:39;;;;;;;10.83;7.37;;;12.40;1.00;;;;;;4986690;28;20496;-74
2023/05/25 03:04:06;;;;;;;12.30;7.63;;;12.40;1.00;;;;;;4981209;28;20464;-74
2023/05/25 03:06:35;;;;;;;8.63;6.80;;;12.50;1.00;;;;;;4986056;28;21302;-74
2023/05/25 03:09:03;;;;;;;10.20;8.47;;;12.50;1.00;;;;;;4989578;28;20921;-74
2023/05/25 03:11:30;;;;;;;9.20;6.90;;;12.40;1.00;;;;;;4980552;28;20461;-74
2023/05/25 03:13:58;;;;;;;13.60;7.73;;;12.40;1.00;;;;;;4981470;28;20465;-74
2023/05/25 03:16:26;;;;;;;9.93;7.60;;;12.40;1.00;;;;;;4984456;28;20769;-74
2023/05/25 03:18:54;;;;;;;11.30;7.97;;;12.30;1.00;;;;;;4988719;28;20461;-74
2023/05/25 03:21:22;;;;;;;7.70;6.83;;;12.30;1.00;;;;;;4987765;28;20479;-74
2023/05/25 03:23:49;;;;;;;12.33;7.40;;;12.30;1.00;;;;;;4988583;28;20451;-74
2023/05/25 03:26:17;;;;;;;12.30;7.83;;;12.30;1.00;;;;;;4984269;28;20559;-74
2023/05/25 03:28:44;;;;;;;8.60;7.60;;;12.30;1.00;;;;;;4984112;28;20471;-71
2023/05/25 03:31:12;;;;;;;12.07;9.17;;;12.30;1.00;;;;;;4980960;28;20849;-71
2023/05/25 03:33:39;;;;;;;13.23;7.80;;;12.30;1.00;;;;;;4982678;28;20460;-71
2023/05/25 03:36:11;;;;;;;16.43;8.87;;;12.30;1.00;;;;;;4986468;28;20491;-71
2023/05/25 03:38:38;;;;;;;12.70;11.40;;;12.30;1.00;;;;;;4985288;28;20554;-72
2023/05/25 03:41:06;;;;;;;12.67;9.00;;;12.30;1.00;;;;;;4986472;28;20459;-71
2023/05/25 03:43:33;;;;;;;11.40;8.87;;;12.30;1.00;;;;;;4986680;28;20496;-71
2023/05/25 03:46:00;;;;;;;11.33;8.60;;;12.40;1.00;;;;;;4980326;28;20557;-73
2023/05/25 03:48:27;;;;;;;11.93;8.70;;;12.30;1.00;;;;;;4981820;28;20521;-72
2023/05/25 03:50:54;;;;;;;10.47;8.17;;;12.30;1.00;;;;;;4984095;28;20467;-71
2023/05/25 03:53:23;;;;;;;11.70;8.97;;;12.30;1.00;;;;;;4987859;28;20522;-71
2023/05/25 03:55:53;;;;;;;11.30;8.90;;;12.40;1.00;;;;;;4986521;28;20470;-71
2023/05/25 03:58:20;;;;;;;10.47;8.73;;;12.40;1.00;;;;;;4980430;28;20547;-71
2023/05/25 04:00:49;;;;;;;13.27;9.20;;;12.30;1.00;;;;;;4970059;28;20467;-71
2023/05/25 04:03:16;;;;;;;11.67;9.50;;;12.40;1.00;;;;;;4983633;28;20471;-71
2023/05/25 04:05:46;;;;;;;14.27;9.00;;;12.40;1.00;;;;;;4981471;28;20483;-71
2023/05/25 04:08:16;;;;;;;13.10;8.57;;;12.40;1.00;;;;;;4981354;28;20674;-72
2023/05/25 04:10:45;;;;;;;11.60;8.60;;;12.40;1.00;;;;;;4982241;28;20470;-71
2023/05/25 04:13:13;;;;;;;14.60;10.90;;;12.40;1.00;;;;;;4979996;28;20493;-71
2023/05/25 04:15:44;;;;;;;12.40;8.97;;;12.40;1.00;;;;;;4983278;28;20559;-70
2023/05/25 04:18:11;;;;;;;11.90;9.03;;;12.40;1.00;;;;;;4989945;28;20551;-72
2023/05/25 04:20:38;;;;;;;11.37;9.90;;;12.50;1.00;;;;;;4985403;28;20475;-71
2023/05/25 04:23:05;;;;;;;9.67;8.10;;;12.60;1.00;;;;;;4987862;28;20475;-72
2023/05/25 04:25:36;;;;;;;11.93;9.23;;;12.60;1.00;;;;;;4991449;28;20464;-72
2023/05/25 04:28:07;;;;;;;14.30;10.00;;;12.60;1.00;;;;;;4988279;28;20428;-72
2023/05/25 04:30:35;;;;;;;15.93;9.47;;;12.60;1.00;;;;;;4981198;28;20484;-72
2023/05/25 04:33:02;;;;;;;16.13;9.40;;;12.70;1.00;;;;;;4984803;28;20498;-72
2023/05/25 04:35:31;;;;;;;17.37;9.57;;;12.70;1.00;;;;;;4984879;28;20526;-72
2023/05/25 04:37:59;;;;;;;18.10;10.87;;;12.80;1.00;;;;;;4991137;28;21099;-71
2023/05/25 04:40:26;;;;;;;10.87;9.10;;;12.80;1.00;;;;;;4984025;28;20467;-71
2023/05/25 04:42:54;;;;;;;13.37;9.50;;;12.90;1.00;;;;;;4984222;28;20990;-71
2023/05/25 04:45:24;;;;;;;13.00;10.00;;;12.90;1.00;;;;;;4982133;28;20517;-71
2023/05/25 04:47:52;;;;;;;16.03;10.90;;;12.90;1.00;;;;;;4977328;28;20453;-70
2023/05/25 04:50:20;;;;;;;14.20;11.63;;;13.00;1.00;;;;;;4970945;28;21592;-71
2023/05/25 04:52:47;;;;;;;16.27;11.07;;;13.10;1.00;;;;;;4968414;28;20469;-71
2023/05/25 04:55:14;;;;;;;13.90;10.43;;;13.10;1.00;;;;;;4990252;28;20550;-71
2023/05/25 04:57:41;;;;;;;12.43;11.13;;;13.20;1.00;;;;;;4972031;28;21096;-72
2023/05/25 05:00:14;;;;;;;15.43;9.67;;;13.20;1.00;;;;;;4975700;28;20871;-72
2023/05/25 05:02:43;;;;;;;13.97;10.70;;;13.30;1.00;;;;;;4984552;28;20472;-72
2023/05/25 05:05:10;;;;;;;13.90;10.80;;;13.40;1.00;;;;;;4985735;28;20609;-71
2023/05/25 05:07:38;;;;;;;15.00;11.47;;;13.40;1.00;;;;;;4982238;28;20543;-70
2023/05/25 05:10:06;;;;;;;16.03;11.43;;;13.50;1.00;;;;;;4991371;28;20433;-71
2023/05/25 05:12:33;;;;;;;12.50;10.10;;;13.60;1.00;;;;;;4987905;28;20469;-72
2023/05/25 05:15:00;;;;;;;17.67;11.90;;;13.70;1.00;;;;;;4989231;28;20484;-72
2023/05/25 05:17:29;;;;;;;18.93;15.70;;;13.70;1.00;;;;;;4990067;28;20541;-72
2023/05/25 05:19:57;;;;;;;19.17;11.40;;;13.80;1.00;;;;;;4990209;28;20462;-72
2023/05/25 05:22:26;;;;;;;15.70;11.40;;;13.80;1.00;;;;;;4992416;28;20484;-75
2023/05/25 05:24:53;;;;;;;15.10;11.17;;;14.00;1.00;;;;;;4989582;28;20469;-73
2023/05/25 05:27:20;;;;;;;15.37;10.50;;;14.10;1.00;;;;;;4992512;28;20450;-72
2023/05/25 05:29:47;;;;;;;11.63;10.37;;;14.20;1.00;;;;;;4976438;28;20970;-73
2023/05/25 05:32:15;;;;;;;13.70;10.77;;;14.30;1.00;;;;;;4983911;28;21002;-73
2023/05/25 05:34:42;;;;;;;14.37;10.90;;;14.40;1.00;;;;;;4980988;28;20506;-73
2023/05/25 05:37:12;;;;;;;17.80;11.30;;;14.50;1.00;;;;;;4986232;28;20514;-73
2023/05/25 05:39:40;;;;;;;13.37;10.43;;;14.60;1.00;;;;;;4983306;28;20490;-74
2023/05/25 05:42:08;;;;;;;15.57;9.53;;;14.70;1.00;;;;;;4985972;28;20467;-73
2023/05/25 05:44:39;;;;;;;18.37;10.90;;;14.80;1.00;;;;;;4990966;28;20529;-72
2023/05/25 05:47:07;;;;;;;19.10;11.73;;;14.90;1.00;;;;;;4992600;28;20478;-73
2023/05/25 05:49:34;;;;;;;14.73;10.27;;;15.00;1.00;;;;;;4991112;28;20472;-73
2023/05/25 05:52:01;;;;;;;14.13;11.00;;;15.10;1.00;;;;;;4991384;28;20487;-74
2023/05/25 05:54:30;;;;;;;12.87;10.10;;;15.10;1.00;;;;;;4994005;28;20914;-73
2023/05/25 05:56:57;;;;;;;15.50;10.97;;;15.20;1.00;;;;;;4990686;28;20474;-74
2023/05/25 05:59:25;;;;;;;13.67;9.73;;;15.40;1.00;;;;;;4994049;28;20490;-73
2023/05/25 06:01:52;;;;;;;11.70;10.50;;;15.50;1.00;;;;;;4993988;28;20863;-74
2023/05/25 06:04:24;;;;;;;16.17;10.23;;;15.70;1.00;;;;;;4987918;28;20494;-73
2023/05/25 06:06:51;;;;;;;13.83;9.87;;;15.80;1.00;;;;;;4985626;28;20487;-74
2023/05/25 06:09:18;;;;;;;13.70;9.93;;;16.00;1.00;;;;;;4991372;28;20467;-74
2023/05/25 06:11:47;;;;;;;16.53;9.33;;;16.00;1.00;;;;;;4988287;28;21010;-72
2023/05/25 06:14:15;;;;;;;15.83;9.37;;;16.10;1.00;;;;;;4992251;28;20553;-74
2023/05/25 06:16:42;;;;;;;13.53;10.33;;;16.20;1.00;;;;;;4988627;28;20557;-73
2023/05/25 06:19:13;;;;;;;14.40;9.37;;;16.30;1.00;;;;;;4992430;28;20546;-71
2023/05/25 06:21:40;;;;;;;15.37;10.30;;;16.30;1.00;;;;;;4972456;28;20554;-72
2023/05/25 06:24:08;;;;;;;12.93;9.40;;;16.40;1.00;;;;;;4989496;28;20911;-73
2023/05/25 06:26:35;;;;;;;12.10;8.90;;;16.50;1.00;;;;;;4993362;28;20475;-74
2023/05/25 06:29:03;;;;;;;16.23;10.50;;;16.70;1.00;;;;;;4985241;28;20867;-73
2023/05/25 06:31:31;;;;;;;12.77;10.00;;;16.70;1.00;;;;;;4976208;28;20467;-73
2023/05/25 06:33:58;;;;;;;15.40;8.37;;;16.80;1.00;;;;;;4983440;28;21521;-71
2023/05/25 06:36:25;;;;;;;11.50;8.00;;;16.80;1.00;;;;;;4984868;28;20464;-73
2023/05/25 06:38:52;;;;;;;12.33;7.90;;;16.80;1.00;;;;;;4988929;28;20474;-73
2023/05/25 06:41:20;;;;;;;8.30;7.37;;;16.80;1.00;;;;;;4989723;28;20487;-74
2023/05/25 06:43:47;;;;;;;11.40;8.07;;;16.90;1.00;;;;;;4989714;28;20486;-74
2023/05/25 06:46:16;;;;;;;12.50;8.20;;;16.90;1.00;;;;;;4990074;28;20605;-77
2023/05/25 06:48:44;;;;;;;10.90;8.53;;;16.90;1.00;;;;;;4982251;28;20467;-71
2023/05/25 06:51:10;;;;;;;9.77;7.17;;;17.00;1.00;;;;;;4984119;28;20467;-72
2023/05/25 06:53:38;;;;;;;18.77;8.37;;;17.20;1.00;;;;;;4982087;28;20523;-71
2023/05/25 06:56:05;;;;;;;11.00;7.80;;;17.40;1.00;;;;;;4986815;28;20456;-72
2023/05/25 06:58:33;;;;;;;15.97;8.43;;;17.40;1.00;;;;;;4982705;28;20500;-73
2023/05/25 07:01:00;;;;;;;12.13;7.00;;;17.50;1.00;;;;;;4984334;28;20551;-73
2023/05/25 07:03:29;;;;;;;11.67;8.37;;;17.50;1.00;;;;;;4985607;28;21206;-72
2023/05/25 07:05:56;;;;;;;15.53;8.60;;;17.70;1.00;;;;;;4982411;28;20522;-72
2023/05/25 07:08:27;;;;;;;7.53;5.83;;;17.70;1.00;;;;;;4976248;28;20456;-73
2023/05/25 07:10:58;;;;;;;11.77;6.90;;;17.80;1.00;;;;;;4978539;28;20542;-73
2023/05/25 07:13:25;;;;;;;12.57;6.37;;;17.80;1.00;;;;;;4983966;28;20565;-72
2023/05/25 07:15:53;;;;;;;15.63;7.20;;;17.80;1.00;;;;;;4991573;28;20527;-73
2023/05/25 07:18:20;;;;;;;10.10;6.40;;;17.80;1.00;;;;;;4981350;28;20496;-72
2023/05/25 07:20:48;;;;;;;17.63;13.87;;;17.90;1.00;;;;;;4984908;28;20504;-71
2023/05/25 07:23:16;;;;;;;9.67;5.60;;;17.90;1.00;;;;;;4980395;28;20564;-73
2023/05/25 07:25:43;;;;;;;8.73;6.23;;;17.90;1.00;;;;;;4983161;28;20849;-72
2023/05/25 07:28:10;;;;;;;8.93;5.70;;;18.00;1.00;;;;;;4984920;28;20535;-72
2023/05/25 07:30:37;;;;;;;9.40;5.20;;;18.00;1.00;;;;;;4987295;28;20538;-72
2023/05/25 07:33:05;;;;;;;11.83;5.70;;;18.10;1.00;;;;;;4987785;28;20969;-72
2023/05/25 07:35:34;;;;;;;13.60;6.00;;;18.20;1.00;;;;;;4991787;28;20452;-73
2023/05/25 07:38:04;;;;;;;7.17;4.80;;;18.20;1.00;;;;;;4991560;28;20488;-71
2023/05/25 07:40:31;;;;;;;9.67;5.27;;;18.30;1.00;;;;;;4987223;28;20461;-73
2023/05/25 07:43:00;;;;;;;11.60;5.93;;;18.40;1.00;;;;;;4986998;28;20664;-76
2023/05/25 07:45:27;;;;;;;12.17;5.20;;;18.50;1.00;;;;;;4986958;28;20449;-70
2023/05/25 07:47:54;;;;;;;11.63;5.63;;;18.80;1.00;;;;;;4985722;28;20535;-71
2023/05/25 07:50:22;;;;;;;5.60;5.10;;;19.10;1.00;;;;;;4987034;28;20466;-71
2023/05/25 07:52:49;;;;;;;9.70;5.70;;;19.20;1.00;;;;;;4988112;28;20566;-71
2023/05/25 07:55:19;;;;;;;7.47;5.20;;;19.40;1.00;;;;;;4987550;28;20550;-72
2023/05/25 07:57:46;;;;;;;6.30;4.37;;;19.40;1.00;;;;;;4984532;28;20904;-71
2023/05/25 08:00:14;;;;;;;9.07;5.13;;;19.20;1.00;;;;;;4989829;28;20474;-71
2023/05/25 08:02:41;;;;;;;8.30;4.20;;;19.00;1.00;;;;;;4982776;28;20524;-71
2023/05/25 08:05:09;;;;;;;11.97;5.30;;;18.80;1.00;;;;;;4986633;28;20471;-72
2023/05/25 08:07:36;;;;;;;10.80;9.70;;;19.00;1.00;;;;;;4987831;28;20458;-71
2023/05/25 08:10:03;;;;;;;12.77;4.90;;;19.20;1.00;;;;;;4988392;28;20457;-70
2023/05/25 08:12:38;;;;;;;7.83;4.57;;;19.60;1.00;;;;;;4981883;28;20521;-72
2023/05/25 08:15:06;;;;;;;6.80;4.30;;;19.90;1.00;;;;;;4988359;28;20461;-72
2023/05/25 08:17:33;;;;;;;9.07;5.20;;;20.30;1.00;;;;;;4988991;28;20938;-70
2023/05/25 08:20:00;;;;;;;9.67;5.90;;;20.40;1.00;;;;;;4985184;28;20464;-70
2023/05/25 08:22:28;;;;;;;7.70;5.07;;;20.50;1.00;;;;;;4984467;28;20535;-71
2023/05/25 08:24:55;;;;;;;8.27;5.37;;;20.40;1.00;;;;;;4988102;28;20957;-72
2023/05/25 08:27:22;;;;;;;8.40;4.20;;;20.70;1.00;;;;;;4987232;28;20466;-71
2023/05/25 08:29:51;;;;;;;8.43;5.00;;;20.90;1.00;;;;;;4984736;28;20563;-70
2023/05/25 08:32:18;;;;;;;7.07;5.07;;;20.90;1.00;;;;;;4979828;28;20597;-72
2023/05/25 08:34:45;;;;;;;11.23;5.13;;;20.80;1.00;;;;;;4985672;28;20524;-70
2023/05/25 08:37:12;;;;;;;6.03;4.70;;;20.90;1.00;;;;;;4986243;28;20464;-71
2023/05/25 08:39:42;;;;;;;9.00;4.83;;;20.70;1.00;;;;;;4987674;28;20492;-70
2023/05/25 08:42:09;;;;;;;8.40;4.63;;;20.90;1.00;;;;;;4984975;28;20502;-71
2023/05/25 08:44:39;;;;;;;8.20;5.60;;;21.10;1.00;;;;;;4985713;28;20466;-72
2023/05/25 08:47:08;;;;;;;8.10;4.30;;;21.50;1.00;;;;;;4985581;28;20585;-73
2023/05/25 08:49:38;;;;;;;7.30;4.40;;;21.70;1.00;;;;;;4983563;28;20469;-73
2023/05/25 08:52:06;;;;;;;8.60;5.00;;;21.40;1.00;;;;;;4989384;28;20477;-74
2023/05/25 08:54:36;;;;;;;8.73;5.40;;;21.20;1.00;;;;;;4986574;28;20832;-73
2023/05/25 08:57:11;;;;;;;11.80;5.60;;;20.80;1.00;;;;;;4981964;28;20459;-72
2023/05/25 08:59:46;;;;;;;10.50;5.57;;;20.60;1.00;;;;;;4982612;28;20506;-72
2023/05/25 09:02:33;;;;;;;6.43;4.77;;;20.40;1.00;;;;;;4985336;28;20518;-73
2023/05/25 09:05:01;;;;;;;9.83;5.80;;;20.50;1.00;;;;;;4986476;28;20457;-73
2023/05/25 09:07:29;;;;;;;8.00;4.80;;;20.70;1.00;;;;;;4988843;28;20552;-72
2023/05/25 09:09:59;;;;;;;7.90;4.30;;;20.80;1.00;;;;;;4971074;28;20447;-73
2023/05/25 09:12:30;;;;;;;10.50;5.50;;;20.80;1.00;;;;;;4988140;28;20488;-72
2023/05/25 09:14:57;;;;;;;9.90;5.80;;;20.90;1.00;;;;;;4990635;28;20464;-73
2023/05/25 09:17:28;;;;;;;6.80;5.47;;;21.20;1.00;;;;;;4982054;28;21076;-73
2023/05/25 09:19:55;;;;;;;12.00;5.60;;;21.40;1.00;;;;;;4989392;28;20468;-73
2023/05/25 09:22:22;;;;;;;9.53;5.27;;;21.70;1.00;;;;;;4993705;28;20572;-74
2023/05/25 09:24:49;;;;;;;8.93;5.53;;;21.70;1.00;;;;;;4992022;28;20475;-73
2023/05/25 09:27:18;;;;;;;8.10;5.27;;;21.70;1.00;;;;;;4984070;28;20489;-73
2023/05/25 09:29:46;;;;;;;9.40;5.33;;;21.80;1.00;;;;;;4987945;28;20469;-73
2023/05/25 09:32:13;;;;;;;7.83;4.97;;;22.40;1.00;;;;;;4992197;28;20991;-73
2023/05/25 09:34:45;;;;;;;8.73;5.23;;;23.60;1.00;;;;;;4990310;28;20478;-73
2023/05/25 09:37:17;;;;;;;6.83;5.23;;;24.90;1.00;;;;;;4992209;28;20551;-73
2023/05/25 09:39:47;;;;;;;10.00;4.80;;;26.00;1.00;;;;;;4992293;28;20501;-73
2023/05/25 09:42:14;;;;;;;7.50;5.00;;;27.10;1.00;;;;;;4985702;28;20474;-73
2023/05/25 09:44:42;;;;;;;5.90;5.10;;;27.90;1.00;;;;;;4990083;28;20518;-73
2023/05/25 09:47:09;;;;;;;10.23;5.20;;;28.70;1.00;;;;;;4991812;28;20473;-74
2023/05/25 09:49:37;;;;;;;6.43;4.87;;;29.50;1.00;;;;;;4991098;28;21963;-72
2023/05/25 09:52:06;;;;;;;8.70;5.60;;;30.40;1.00;;;;;;4989975;28;20542;-72
2023/05/25 09:54:34;;;;;;;5.70;5.17;;;30.60;1.00;;;;;;4989925;28;20471;-72
2023/05/25 09:57:06;;;;;;;8.63;5.13;;;30.80;1.00;;;;;;4987219;28;20466;-73
2023/05/25 09:59:33;;;;;;;7.60;5.07;;;30.40;1.00;;;;;;4985595;28;20482;-72
2023/05/25 10:02:00;;;;;;;8.80;5.70;;;29.80;1.00;;;;;;4977963;28;20484;-72
2023/05/25 10:04:27;;;;;;;12.73;6.97;;;29.90;1.00;;;;;;4972086;28;20487;-72
2023/05/25 10:06:56;;;;;;;6.30;5.20;;;30.50;1.00;;;;;;4983062;28;20454;-77
2023/05/25 10:09:27;;;;;;;6.30;5.60;;;31.10;1.00;;;;;;4985690;28;21021;-77
2023/05/25 10:11:56;;;;;;;5.63;5.03;;;31.80;1.00;;;;;;4988603;28;20562;-76
2023/05/25 10:14:27;;;;;;;11.30;5.00;;;32.60;1.00;;;;;;4985624;28;20551;-77
2023/05/25 10:16:57;;;;;;;6.63;5.93;;;32.50;1.00;;;;;;4988398;28;20439;-75
2023/05/25 10:19:30;;;;;;;7.77;6.50;;;32.20;1.00;;;;;;4983504;28;20521;-76
2023/05/25 10:22:06;;;;;;;8.73;5.83;;;30.60;1.00;;;;;;4982808;28;20499;-79
2023/05/25 10:24:45;;;;;;;7.40;6.40;;;29.10;1.00;;;;;;4981932;28;20494;-77
2023/05/25 10:27:19;;;;;;;8.20;6.83;;;28.40;1.00;;;;;;4981774;28;20549;-77
2023/05/25 10:29:55;;;;;;;8.10;5.20;;;28.00;1.00;;;;;;4985191;28;20568;-76
2023/05/25 10:32:23;;;;;;;6.00;5.50;;;28.30;1.00;;;;;;4981118;28;20478;-77
2023/05/25 10:34:52;;;;;;;7.80;6.37;;;29.50;1.00;;;;;;4979237;28;20609;-77
2023/05/25 10:37:19;;;;;;;5.93;5.33;;;31.10;1.00;;;;;;4981875;28;20551;-77
2023/05/25 10:39:49;;;;;;;5.97;5.37;;;31.10;1.00;;;;;;4990350;28;20851;-78
2023/05/25 10:42:18;;;;;;;8.57;5.30;;;30.40;1.00;;;;;;4986833;28;20936;-77
2023/05/25 10:44:46;;;;;;;5.50;5.00;;;30.80;1.00;;;;;;4996005;28;20463;-77
2023/05/25 10:47:15;;;;;;;6.37;5.03;;;30.10;1.00;;;;;;4979476;28;20528;-77
2023/05/25 10:49:53;;;;;;;7.80;5.70;;;29.30;1.00;;;;;;4990614;28;20604;-77
2023/05/25 10:52:21;;;;;;;6.00;5.40;;;29.90;1.00;;;;;;4962774;28;20478;-75
2023/05/25 10:54:49;;;;;;;8.10;6.20;;;30.20;1.00;;;;;;4986190;28;20507;-73
2023/05/25 10:57:20;;;;;;;6.47;5.87;;;29.30;1.00;;;;;;4988211;28;20557;-76
2023/05/25 10:59:54;;;;;;;7.60;5.83;;;28.80;1.00;;;;;;4981213;28;20463;-76
2023/05/25 11:02:23;;;;;;;14.23;7.40;;;29.60;1.00;;;;;;4982322;28;20470;-74
2023/05/25 11:04:50;;;;;;;10.53;5.47;;;29.80;1.00;;;;;;4987048;28;20452;-77
2023/05/25 11:07:18;;;;;;;10.43;6.73;;;30.70;1.00;;;;;;4985983;28;20844;-77
2023/05/25 11:09:58;;;;;;;6.37;5.73;;;32.10;1.00;;;;;;4990805;28;20455;-77
2023/05/25 11:12:27;;;;;;;7.10;5.53;;;33.40;1.00;;;;;;4986590;28;20477;-78
2023/05/25 11:15:17;;;;;;;5.40;4.93;;;34.00;1.00;;;;;;4990422;28;20996;-77
2023/05/25 11:17:47;;;;;;;6.67;6.07;;;33.10;1.00;;;;;;4984564;28;20885;-76
2023/05/25 11:20:22;;;;;;;7.47;6.50;;;31.40;1.00;;;;;;4988148;28;20576;-76
2023/05/25 11:22:51;;;;;;;10.37;7.53;;;29.40;1.00;;;;;;4984395;28;20472;-75
2023/05/25 11:25:39;;;;;;;6.30;5.70;;;28.50;1.00;;;;;;4986514;28;20538;-76
2023/05/25 11:28:09;;;;;;;6.80;5.60;;;30.00;1.00;;;;;;4980589;28;20459;-78
2023/05/25 11:30:36;;;;;;;7.80;5.37;;;31.60;1.00;;;;;;4985217;28;20527;-75
2023/05/25 11:33:06;;;;;;;8.03;5.90;;;32.60;1.00;;;;;;4987906;28;21052;-76
2023/05/25 11:35:40;;;;;;;6.27;5.67;;;33.70;1.00;;;;;;4982176;28;20463;-75
2023/05/25 11:38:08;;;;;;;6.20;5.53;;;34.30;1.00;;;;;;4965146;28;20467;-76
2023/05/25 11:40:35;;;;;;;7.07;6.37;;;34.40;1.00;;;;;;4979908;28;20950;-75
2023/05/25 11:43:08;;;;;;;6.93;6.23;;;33.60;1.00;;;;;;4986433;28;20554;-73
2023/05/25 11:45:37;;;;;;;6.43;5.80;;;33.40;1.00;;;;;;4981714;28;20537;-77
2023/05/25 11:48:05;;;;;;;7.70;5.97;;;33.30;1.00;;;;;;4987239;28;20446;-76
2023/05/25 11:50:32;;;;;;;7.97;5.43;;;32.10;1.00;;;;;;4984491;28;20475;-75
2023/05/25 11:52:59;;;;;;;9.80;6.17;;;31.30;1.00;;;;;;4990986;28;20467;-77
2023/05/25 11:55:26;;;;;;;6.77;5.97;;;32.00;1.00;;;;;;4987201;28;20570;-74
2023/05/25 11:57:57;;;;;;;6.90;5.40;;;33.00;1.00;;;;;;4986730;28;20482;-73
2023/05/25 12:00:27;;;;;;;7.30;5.27;;;33.80;1.00;;;;;;4985439;28;20479;-74
2023/05/25 12:02:54;;;;;;;6.87;6.27;;;33.40;1.00;;;;;;4979857;28;20471;-75
2023/05/25 12:05:22;;;;;;;8.30;6.00;;;32.60;1.00;;;;;;4988838;28;20458;-78
2023/05/25 12:07:49;;;;;;;8.73;5.73;;;32.80;1.00;;;;;;4987514;28;20538;-76
2023/05/25 12:10:16;;;;;;;10.30;7.00;;;33.20;1.00;;;;;;4992087;28;20814;-77
2023/05/25 12:12:45;;;;;;;6.73;6.13;;;34.20;1.00;;;;;;4985307;28;20487;-76
2023/05/25 12:15:14;;;;;;;6.13;5.60;;;33.80;1.00;;;;;;4989497;28;20485;-76
2023/05/25 12:17:43;;;;;;;5.73;5.00;;;33.60;1.00;;;;;;4987530;28;20471;-77
2023/05/25 12:20:12;;;;;;;6.70;6.10;;;33.50;1.00;;;;;;4989652;28;20471;-76
2023/05/25 12:22:40;;;;;;;5.33;4.83;;;32.70;1.00;;;;;;4991900;28;20553;-75
2023/05/25 12:25:09;;;;;;;7.17;5.90;;;31.40;1.00;;;;;;4995671;28;20463;-76
2023/05/25 12:27:36;;;;;;;6.33;5.73;;;30.40;1.00;;;;;;4990139;28;20463;-76
2023/05/25 12:30:05;;;;;;;8.10;7.30;;;31.30;1.00;;;;;;4990011;28;20451;-76
2023/05/25 12:32:32;;;;;;;5.97;5.37;;;32.60;1.00;;;;;;4989189;28;20479;-75
2023/05/25 12:35:05;;;;;;;6.30;5.70;;;33.00;1.00;;;;;;4988463;28;20557;-74
2023/05/25 12:37:33;;;;;;;6.80;6.10;;;32.10;1.00;;;;;;4987395;28;20860;-78
2023/05/25 12:40:00;;;;;;;6.23;5.60;;;31.90;1.00;;;;;;4998514;28;20937;-80
2023/05/25 12:42:29;;;;;;;6.20;5.50;;;31.70;1.00;;;;;;4993119;28;20890;-77
2023/05/25 12:44:59;;;;;;;7.70;6.07;;;32.60;1.00;;;;;;4997446;28;20498;-74
2023/05/25 12:47:29;;;;;;;7.60;6.80;;;32.40;1.00;;;;;;4996151;28;20439;-74
2023/05/25 12:50:13;;;;;;;8.83;6.63;;;31.20;1.00;;;;;;4995164;28;20454;-74
2023/05/25 12:52:42;;;;;;;6.90;5.60;;;28.90;1.00;;;;;;4992315;28;20691;-76
2023/05/25 12:55:24;;;;;;;9.53;7.13;;;27.60;1.00;;;;;;4991754;28;21219;-75
2023/05/25 12:57:51;;;;;;;7.70;6.47;;;26.40;1.00;;;;;;4991051;28;21009;-75